Time;durP1;ratioP1;P1;durP2;ratioP2;P2;SDS_P1;SDS_P2;PMS_P1;PMS_P2;Temp;Humidity;BMP_temperature;BMP_pressure;BME280_temperature;BME280_humidity;BME280_pressure;Samples;Min_cycle;Max_cycle;Signal;HPM_P1;HPM_P2
2022/11/18 00:01:12;;;;;;;34.08;18.62;;;;;;;8.15;94.25;98507.63;4486623;31;33873;-76
2022/11/18 00:03:41;;;;;;;34.88;17.90;;;;;;;8.34;93.23;98514.28;4488192;31;33876;-78
2022/11/18 00:06:13;;;;;;;37.13;18.83;;;;;;;8.13;94.13;98509.28;4490313;31;34734;-76
2022/11/18 00:08:41;;;;;;;37.85;19.40;;;;;;;8.08;94.40;98515.16;4491553;31;34704;-76
2022/11/18 00:14:17;;;;;;;34.05;18.42;;;;;;;8.17;93.33;98503.38;4489913;31;33936;-75
2022/11/18 00:14:17;;;;;;;35.75;19.12;;;;;;;8.17;93.80;98500.81;4485226;31;35498;-79
2022/11/18 00:16:55;;;;;;;35.90;19.17;;;;;;;8.50;92.11;98497.59;4486081;31;33629;-75
2022/11/18 00:19:28;;;;;;;36.72;19.83;;;;;;;8.44;91.31;98499.19;4486619;31;33617;-76
2022/11/18 00:21:56;;;;;;;37.38;20.00;;;;;;;8.22;92.37;98504.44;4486971;31;33792;-78
2022/11/18 00:24:24;;;;;;;39.30;20.92;;;;;;;8.12;92.71;98512.69;4486277;31;32367;-78
2022/11/18 00:26:52;;;;;;;37.60;19.02;;;;;;;8.11;92.54;98513.50;4480204;31;33611;-77
2022/11/18 00:29:20;;;;;;;42.95;22.08;;;;;;;7.66;94.91;98499.09;4483741;31;34547;-74
2022/11/18 00:31:48;;;;;;;41.45;21.17;;;;;;;7.40;97.42;98505.91;4486678;31;33323;-79
2022/11/18 00:34:17;;;;;;;39.08;20.50;;;;;;;7.73;95.27;98495.03;4480035;32;33326;-77
2022/11/18 00:36:45;;;;;;;35.88;19.35;;;;;;;8.19;92.37;98499.16;4486777;31;34257;-79
2022/11/18 00:39:14;;;;;;;37.80;20.62;;;;;;;8.02;93.15;98489.16;4487069;31;34674;-77
2022/11/18 00:44:28;;;;;;;34.05;18.67;;;;;;;7.79;93.82;98490.09;4485054;31;34458;-76
2022/11/18 00:46:56;;;;;;;35.90;20.12;;;;;;;7.93;92.69;98487.97;4485492;31;33881;-79
2022/11/18 00:49:23;;;;;;;36.50;20.08;;;;;;;7.87;92.31;98493.81;4485696;31;34620;-76
2022/11/18 00:51:51;;;;;;;38.38;21.17;;;;;;;7.43;94.48;98490.53;4487825;31;34332;-76
2022/11/18 00:54:18;;;;;;;38.65;21.23;;;;;;;7.40;94.39;98493.03;4487164;31;34278;-77
2022/11/18 00:56:46;;;;;;;38.85;19.77;;;;;;;7.15;95.18;98497.25;4487314;31;33839;-79
2022/11/18 00:59:13;;;;;;;39.35;20.23;;;;;;;7.04;96.28;98495.97;4484534;31;34622;-78
2022/11/18 01:01:41;;;;;;;41.85;20.80;;;;;;;7.14;95.75;98497.19;4485327;31;34447;-79
2022/11/18 01:04:09;;;;;;;39.17;20.58;;;;;;;7.19;95.78;98500.84;4485906;31;33246;-77
2022/11/18 01:06:36;;;;;;;36.95;20.15;;;;;;;7.27;95.52;98504.56;4486138;31;34730;-76
2022/11/18 01:09:04;;;;;;;35.28;19.77;;;;;;;7.37;95.21;98501.50;4486767;31;33716;-76
2022/11/18 01:14:17;;;;;;;37.70;20.45;;;;;;;9.29;85.50;98482.78;4482400;31;33503;-78
2022/11/18 01:16:49;;;;;;;38.08;19.27;;;;;;;9.80;81.53;98472.12;4485247;31;33619;-76
2022/11/18 01:19:18;;;;;;;31.45;17.30;;;;;;;9.58;82.19;98458.62;4483300;31;33949;-76
2022/11/18 01:21:46;;;;;;;33.75;18.15;;;;;;;9.47;82.14;98457.47;4485779;31;33413;-76
2022/11/18 01:24:13;;;;;;;41.83;19.12;;;;;;;9.70;81.19;98470.16;4483870;31;34104;-79
2022/11/18 01:26:41;;;;;;;30.08;15.10;;;;;;;9.58;80.98;98455.16;4482028;32;33855;-80
2022/11/18 01:29:08;;;;;;;32.25;15.45;;;;;;;9.30;82.55;98448.38;4494802;31;33339;-78
2022/11/18 01:31:36;;;;;;;27.60;14.82;;;;;;;9.38;82.00;98446.87;4487076;31;34166;-78
2022/11/18 01:34:27;;;;;;;29.35;15.73;;;;;;;9.58;80.42;98445.72;4481726;31;33618;-75
2022/11/18 01:36:55;;;;;;;31.12;15.75;;;;;;;9.67;79.60;98447.66;4483822;31;33872;-77
2022/11/18 01:39:22;;;;;;;40.42;21.37;;;;;;;10.15;76.89;98448.88;4487209;31;33980;-79
2022/11/18 01:41:50;;;;;;;26.27;15.23;;;;;;;9.64;78.11;98455.34;4489189;31;33997;-78
2022/11/18 01:44:56;;;;;;;35.38;15.25;;;;;;;8.15;82.54;98461.19;4484017;31;32942;-79
2022/11/18 01:47:34;;;;;;;29.10;16.08;;;;;;;7.57;85.78;98471.31;4483200;31;33846;-78
2022/11/18 01:50:03;;;;;;;29.95;16.20;;;;;;;7.05;89.99;98469.37;4483624;31;32497;-77
2022/11/18 01:52:50;;;;;;;32.42;15.88;;;;;;;6.87;91.87;98462.72;4483961;31;35487;-78
2022/11/18 01:55:22;;;;;;;33.55;16.95;;;;;;;7.58;88.43;98470.47;4483995;31;33767;-77
2022/11/18 01:57:55;;;;;;;35.97;17.12;;;;;;;6.82;92.15;98482.28;4482468;31;33891;-79
2022/11/18 02:00:22;;;;;;;35.00;18.02;;;;;;;6.66;93.28;98479.94;4485782;31;32564;-79
2022/11/18 02:02:50;;;;;;;43.08;21.30;;;;;;;6.83;93.04;98481.47;4485504;31;34415;-76
2022/11/18 02:05:18;;;;;;;40.50;22.55;;;;;;;6.84;92.87;98475.50;4486389;31;33514;-76
2022/11/18 02:07:46;;;;;;;44.47;21.45;;;;;;;6.73;93.85;98478.50;4480707;31;33741;-77
2022/11/18 02:10:20;;;;;;;74.53;35.35;;;;;;;7.25;91.66;98473.59;4484390;31;33789;-75
2022/11/18 02:12:49;;;;;;;107.70;42.08;;;;;;;7.55;89.88;98465.22;4484539;31;33496;-76
2022/11/18 02:15:24;;;;;;;126.43;43.33;;;;;;;7.43;90.43;98459.63;4483693;31;32259;-76
2022/11/18 02:17:57;;;;;;;179.12;39.97;;;;;;;7.24;91.87;98460.66;4483212;31;33756;-79
2022/11/18 02:20:34;;;;;;;134.52;38.13;;;;;;;7.23;92.09;98457.22;4485559;31;34067;-76
2022/11/18 02:23:23;;;;;;;171.87;40.12;;;;;;;8.15;87.96;98440.56;4481571;32;34859;-78
2022/11/18 02:25:50;;;;;;;99.20;37.35;;;;;;;8.10;87.48;98440.44;4484085;31;33795;-77
2022/11/18 02:28:24;;;;;;;90.07;35.55;;;;;;;8.73;84.42;98439.84;4484602;31;34161;-79
2022/11/18 02:30:59;;;;;;;108.73;35.37;;;;;;;9.04;83.14;98441.62;4484892;31;33600;-77
2022/11/18 02:33:39;;;;;;;92.07;32.95;;;;;;;8.70;84.82;98442.34;4495123;31;33621;-78
2022/11/18 02:36:25;;;;;;;76.85;32.70;;;;;;;8.84;84.10;98428.12;4490566;31;33407;-78
2022/11/18 02:39:04;;;;;;;83.78;34.65;;;;;;;9.05;83.22;98427.00;4484072;32;33701;-79
2022/11/18 02:41:33;;;;;;;85.85;34.80;;;;;;;9.30;82.61;98413.06;4494147;31;33661;-78
2022/11/18 02:44:08;;;;;;;79.62;33.00;;;;;;;9.25;82.42;98405.19;4483321;32;32354;-76
2022/11/18 02:46:36;;;;;;;;;;;;;;;9.55;81.39;98393.03;4484340;32;33369;-77
2022/11/18 02:49:08;;;;;;;61.28;27.15;;;;;;;9.64;80.84;98394.16;4483908;32;33944;-80
2022/11/18 02:51:36;;;;;;;59.03;25.95;;;;;;;9.76;80.14;98382.38;4481077;31;33341;-77
2022/11/18 02:54:06;;;;;;;74.60;28.90;;;;;;;9.55;81.02;98386.16;4482570;31;33604;-76
2022/11/18 02:56:34;;;;;;;74.45;27.58;;;;;;;8.64;83.61;98391.41;4485291;31;33645;-77
2022/11/18 02:59:02;;;;;;;79.25;27.05;;;;;;;8.64;83.93;98390.53;4483438;32;33793;-79
2022/11/18 03:01:33;;;;;;;89.50;27.83;;;;;;;8.02;86.85;98398.03;4483253;32;33600;-75
2022/11/18 03:04:01;;;;;;;84.50;30.73;;;;;;;7.84;88.50;98406.03;4495492;31;33904;-78
2022/11/18 03:06:39;;;;;;;80.28;26.37;;;;;;;7.94;88.51;98402.94;4486717;31;33585;-76
2022/11/18 03:09:25;;;;;;;120.13;27.17;;;;;;;7.47;92.22;98412.53;4483138;32;33793;-75
2022/11/18 03:12:13;;;;;;;52.55;23.20;;;;;;;8.13;89.52;98406.09;4486279;31;34240;-77
2022/11/18 03:15:10;;;;;;;56.92;23.80;;;;;;;9.32;83.56;98405.34;4488708;31;34023;-79
2022/11/18 03:17:49;;;;;;;72.20;25.52;;;;;;;9.72;81.15;98412.47;4483745;31;33699;-78
2022/11/18 03:20:23;;;;;;;43.90;20.52;;;;;;;8.66;85.16;98422.41;4487708;31;33623;-76
2022/11/18 03:22:59;;;;;;;60.03;20.73;;;;;;;9.34;83.36;98414.88;4492683;31;33869;-77
2022/11/18 03:25:34;;;;;;;63.15;20.05;;;;;;;8.99;84.21;98417.38;4484376;31;34558;-78
2022/11/18 03:28:16;;;;;;;85.57;21.77;;;;;;;8.66;86.04;98427.59;4482611;31;31889;-75
2022/11/18 03:30:49;;;;;;;86.57;20.92;;;;;;;8.49;87.05;98428.78;4485550;31;33595;-77
2022/11/18 03:33:20;;;;;;;74.62;20.48;;;;;;;8.46;86.89;98435.59;4484449;32;33871;-78
2022/11/18 03:35:50;;;;;;;103.62;22.25;;;;;;;8.53;87.01;98430.63;4481082;31;33579;-76
2022/11/18 03:38:23;;;;;;;67.87;21.20;;;;;;;8.16;89.62;98432.00;4485181;31;33284;-75
2022/11/18 03:40:55;;;;;;;45.95;19.87;;;;;;;8.83;86.33;98426.38;4481554;31;34459;-78
2022/11/18 03:43:25;;;;;;;45.58;21.08;;;;;;;9.78;82.48;98416.91;4487483;31;34695;-76
2022/11/18 03:46:04;;;;;;;53.42;19.12;;;;;;;10.04;80.75;98426.22;4489261;31;34421;-79
2022/11/18 03:48:36;;;;;;;47.60;21.87;;;;;;;9.96;81.08;98427.72;4484754;31;34200;-75
2022/11/18 03:51:10;;;;;;;89.22;21.42;;;;;;;10.14;79.98;98441.94;4483754;32;33827;-79
2022/11/18 03:53:41;;;;;;;41.08;18.90;;;;;;;9.62;82.00;98442.38;4496936;31;33885;-77
2022/11/18 03:56:18;;;;;;;44.08;19.33;;;;;;;10.17;80.23;98432.53;4468532;31;34336;-76
2022/11/18 03:58:49;;;;;;;;;;;;;;;10.07;80.20;98415.06;4485350;31;33556;-74
2022/11/18 04:01:46;;;;;;;44.47;21.12;;;;;;;10.26;79.53;98416.37;4500806;31;33223;-79
2022/11/18 04:04:14;;;;;;;48.58;21.92;;;;;;;10.14;80.05;98405.72;4496038;31;33428;-76
2022/11/18 04:06:48;;;;;;;39.20;19.65;;;;;;;9.69;81.97;98416.66;4492634;31;34080;-77
2022/11/18 04:09:22;;;;;;;41.47;18.40;;;;;;;10.12;80.38;98402.22;4472537;32;33366;-77
2022/11/18 04:12:03;;;;;;;43.67;19.42;;;;;;;9.90;81.23;98406.00;4471982;31;33081;-76
2022/11/18 04:14:33;;;;;;;48.42;19.62;;;;;;;9.62;82.12;98401.00;4474291;32;34832;-75
2022/11/18 04:17:08;;;;;;;59.10;20.35;;;;;;;9.21;84.38;98387.88;4483571;31;32734;-78
2022/11/18 04:19:36;;;;;;;45.50;19.65;;;;;;;9.43;83.34;98365.19;4471580;31;33531;-75
2022/11/18 04:22:03;;;;;;;38.70;19.30;;;;;;;10.02;80.76;98363.22;4479566;32;33977;-79
2022/11/18 04:24:31;;;;;;;45.60;21.00;;;;;;;10.03;80.68;98362.34;4486451;31;33903;-75
2022/11/18 04:27:02;;;;;;;41.00;20.17;;;;;;;10.04;80.82;98358.94;4494328;31;33673;-78
2022/11/18 04:29:30;;;;;;;43.17;20.02;;;;;;;10.36;79.52;98351.06;4492980;31;33288;-79
2022/11/18 04:31:59;;;;;;;46.72;19.98;;;;;;;10.06;80.80;98350.31;4496603;31;33250;-78
2022/11/18 04:34:27;;;;;;;43.60;19.98;;;;;;;10.21;80.27;98356.72;4488742;31;34029;-79
2022/11/18 04:36:54;;;;;;;45.65;20.70;;;;;;;10.06;80.71;98350.31;4493382;31;33915;-76
2022/11/18 04:39:22;;;;;;;44.53;22.08;;;;;;;10.03;80.76;98346.84;4497686;31;34127;-79
2022/11/18 04:41:55;;;;;;;49.50;22.62;;;;;;;9.70;81.64;98346.91;4498301;31;34522;-76
2022/11/18 04:44:28;;;;;;;44.63;21.58;;;;;;;8.64;87.55;98367.28;4487596;31;33554;-78
2022/11/18 04:46:57;;;;;;;52.05;21.87;;;;;;;8.31;90.11;98380.91;4484721;31;34429;-77
2022/11/18 04:49:25;;;;;;;44.05;20.73;;;;;;;8.11;92.53;98384.56;4461560;32;32852;-76
2022/11/18 04:51:53;;;;;;;48.92;23.33;;;;;;;8.03;93.00;98377.44;4490674;31;34538;-75
2022/11/18 04:54:22;;;;;;;55.55;23.62;;;;;;;7.85;94.43;98397.50;4491300;31;34041;-74
2022/11/18 04:56:50;;;;;;;54.00;24.63;;;;;;;7.59;96.61;98400.09;4483752;32;34884;-76
2022/11/18 04:59:19;;;;;;;54.60;23.80;;;;;;;7.91;96.09;98392.53;4489325;31;33703;-77
2022/11/18 05:01:48;;;;;;;59.05;23.95;;;;;;;8.60;92.14;98391.28;4489175;31;33142;-78
2022/11/18 05:04:21;;;;;;;54.08;23.20;;;;;;;8.37;92.54;98388.81;4482918;31;34135;-77
2022/11/18 05:06:49;;;;;;;48.17;21.98;;;;;;;8.80;90.99;98386.69;4469883;31;34339;-78
2022/11/18 05:09:17;;;;;;;49.55;23.23;;;;;;;9.60;86.94;98379.41;4458214;32;32092;-77
2022/11/18 05:14:32;;;;;;;52.13;23.23;;;;;;;10.43;81.95;98363.31;4487966;31;33604;-76
2022/11/18 05:17:01;;;;;;;43.60;22.42;;;;;;;10.04;83.63;98364.13;4477720;31;33445;-76
2022/11/18 05:19:29;;;;;;;42.95;20.92;;;;;;;10.71;80.68;98358.72;4465629;32;33478;-76
2022/11/18 05:21:57;;;;;;;49.03;21.80;;;;;;;10.82;79.25;98352.06;4480982;31;33546;-78
2022/11/18 05:24:26;;;;;;;41.70;20.52;;;;;;;10.33;81.39;98356.16;4484713;31;34801;-75
2022/11/18 05:26:54;;;;;;;40.85;21.23;;;;;;;10.71;80.02;98358.72;4484712;31;33845;-77
2022/11/18 05:29:22;;;;;;;43.83;21.92;;;;;;;10.54;80.57;98360.06;4485051;31;33225;-79
2022/11/18 05:31:50;;;;;;;48.22;22.02;;;;;;;10.65;80.26;98361.19;4481433;31;33698;-80
2022/11/18 05:34:18;;;;;;;42.40;22.08;;;;;;;10.10;82.71;98362.50;4482242;31;32712;-78
2022/11/18 05:36:46;;;;;;;46.08;22.25;;;;;;;10.11;82.90;98367.72;4481117;31;34005;-78
2022/11/18 05:39:13;;;;;;;42.92;23.02;;;;;;;10.36;81.64;98366.59;4479138;32;33423;-78
2022/11/18 05:44:27;;;;;;;55.25;21.20;;;;;;;10.07;82.88;98349.50;4484063;31;33679;-76
2022/11/18 05:46:55;;;;;;;43.30;21.00;;;;;;;10.30;82.33;98356.09;4483284;31;33756;-75
2022/11/18 05:49:22;;;;;;;42.15;20.17;;;;;;;10.35;82.03;98369.13;4473956;31;33218;-78
2022/11/18 05:51:50;;;;;;;37.53;20.70;;;;;;;10.43;81.57;98363.31;4484132;31;34465;-76
2022/11/18 05:54:18;;;;;;;43.45;22.42;;;;;;;10.69;80.60;98355.22;4495331;31;33785;-79
2022/11/18 05:56:45;;;;;;;42.03;21.73;;;;;;;10.55;81.20;98362.69;4481750;31;32472;-76
2022/11/18 05:59:14;;;;;;;48.17;21.77;;;;;;;10.48;81.72;98362.53;4480059;31;33736;-78
2022/11/18 06:02:09;;;;;;;51.75;24.52;;;;;;;10.32;82.10;98364.78;4480933;32;33709;-79
2022/11/18 06:04:45;;;;;;;50.33;23.15;;;;;;;10.18;83.08;98376.50;4489057;31;33930;-78
2022/11/18 06:07:17;;;;;;;46.05;22.20;;;;;;;10.50;81.70;98373.78;4485234;31;33688;-78
2022/11/18 06:09:49;;;;;;;49.22;23.60;;;;;;;10.87;80.17;98370.25;4477784;31;34238;-76
2022/11/18 06:12:38;;;;;;;45.90;21.52;;;;;;;11.07;79.21;98370.69;4485883;31;34226;-79
2022/11/18 06:15:18;;;;;;;46.45;24.33;;;;;;;10.85;80.28;98360.72;4480687;31;33914;-76
2022/11/18 06:17:51;;;;;;;51.67;25.60;;;;;;;11.00;79.91;98361.03;4486249;31;33185;-77
2022/11/18 06:20:19;;;;;;;48.10;24.00;;;;;;;11.27;78.69;98352.06;4487186;31;33325;-76
2022/11/18 06:22:53;;;;;;;42.53;22.37;;;;;;;11.07;79.46;98357.72;4485360;31;34640;-78
2022/11/18 06:25:21;;;;;;;44.47;22.50;;;;;;;11.54;77.47;98351.66;4496186;31;33931;-78
2022/11/18 06:27:50;;;;;;;51.22;22.73;;;;;;;11.20;78.61;98349.34;4483131;32;33748;-79
2022/11/18 06:30:17;;;;;;;52.53;23.60;;;;;;;11.10;79.07;98352.59;4487237;31;34092;-77
2022/11/18 06:32:45;;;;;;;50.65;24.15;;;;;;;11.05;79.35;98343.88;4488306;31;33963;-78
2022/11/18 06:35:12;;;;;;;53.87;24.40;;;;;;;10.60;81.79;98345.56;4489346;31;35370;-77
2022/11/18 06:37:40;;;;;;;61.25;25.15;;;;;;;10.46;82.83;98340.91;4484627;31;33877;-77
2022/11/18 06:40:08;;;;;;;55.12;26.85;;;;;;;10.68;82.19;98332.78;4495176;31;33223;-77
2022/11/18 06:45:22;;;;;;;63.25;26.48;;;;;;;10.91;81.09;98347.87;4494319;31;33986;-81
2022/11/18 06:47:49;;;;;;;69.30;28.90;;;;;;;10.39;83.54;98353.72;4491548;31;34018;-78
2022/11/18 06:50:17;;;;;;;56.40;25.85;;;;;;;10.54;83.71;98357.47;4496480;31;33231;-80
2022/11/18 06:52:44;;;;;;;58.03;26.48;;;;;;;11.10;81.21;98350.00;4487173;31;34870;-77
2022/11/18 06:55:12;;;;;;;55.45;26.40;;;;;;;10.80;82.24;98361.50;4485953;31;32064;-76
2022/11/18 06:57:39;;;;;;;52.45;25.12;;;;;;;10.67;83.23;98358.62;4497811;31;34416;-76
2022/11/18 07:00:07;;;;;;;50.78;24.35;;;;;;;10.89;82.70;98362.53;4481489;31;31771;-80
2022/11/18 07:02:35;;;;;;;51.33;24.42;;;;;;;10.88;82.83;98355.63;4485882;31;34425;-77
2022/11/18 07:05:05;;;;;;;55.38;23.95;;;;;;;10.79;83.08;98361.47;4493125;31;33617;-79
2022/11/18 07:07:35;;;;;;;55.42;25.55;;;;;;;10.39;85.21;98351.16;4469176;31;32440;-77
2022/11/18 07:10:09;;;;;;;57.30;25.45;;;;;;;10.81;83.71;98360.66;4488521;31;32838;-79
2022/11/18 07:12:36;;;;;;;54.13;24.23;;;;;;;10.96;82.97;98369.59;4488900;31;33980;-79
2022/11/18 07:15:04;;;;;;;49.13;23.15;;;;;;;11.09;82.11;98353.44;4489269;31;34594;-79
2022/11/18 07:17:31;;;;;;;47.08;22.30;;;;;;;11.01;82.72;98347.25;4489020;31;33905;-80
2022/11/18 07:19:59;;;;;;;50.38;23.27;;;;;;;10.73;84.01;98340.63;4489778;31;34185;-79
2022/11/18 07:22:26;;;;;;;42.47;21.10;;;;;;;10.87;83.71;98343.50;4497275;31;33732;-79
2022/11/18 07:24:54;;;;;;;40.58;20.40;;;;;;;10.94;83.33;98342.78;4483647;31;33580;-78
2022/11/18 07:27:21;;;;;;;48.63;23.25;;;;;;;10.71;84.34;98335.41;4484139;32;33368;-77
2022/11/18 07:29:49;;;;;;;42.92;19.73;;;;;;;10.64;85.01;98336.12;4493631;31;33777;-77
2022/11/18 07:32:16;;;;;;;39.83;20.00;;;;;;;10.70;84.90;98337.97;4498934;31;33737;-77
2022/11/18 07:34:44;;;;;;;43.60;21.30;;;;;;;10.89;83.89;98336.62;4485965;31;33895;-79
2022/11/18 07:37:12;;;;;;;45.80;20.58;;;;;;;10.63;85.35;98334.38;4489537;31;34580;-77
2022/11/18 07:39:39;;;;;;;45.35;20.92;;;;;;;10.98;83.50;98331.63;4493741;31;33243;-78
2022/11/18 07:42:08;;;;;;;42.03;19.70;;;;;;;11.30;82.41;98331.34;4484410;32;34918;-79
2022/11/18 07:44:35;;;;;;;43.38;20.55;;;;;;;11.29;82.20;98327.03;4498364;31;34668;-77
2022/11/18 07:47:03;;;;;;;43.22;20.73;;;;;;;11.32;81.96;98324.47;4497738;31;34525;-81
2022/11/18 07:49:31;;;;;;;41.65;20.30;;;;;;;11.37;81.62;98322.84;4491614;31;33070;-77
2022/11/18 07:51:58;;;;;;;44.97;22.25;;;;;;;11.44;81.32;98306.56;4488377;31;33478;-77
2022/11/18 07:54:25;;;;;;;41.85;19.85;;;;;;;11.42;81.27;98316.03;4490806;31;34660;-77
2022/11/18 07:56:53;;;;;;;39.95;19.67;;;;;;;11.50;80.98;98322.22;4484653;31;33606;-78
2022/11/18 07:59:20;;;;;;;45.20;20.15;;;;;;;11.78;79.57;98314.88;4489276;31;33347;-78
2022/11/18 08:01:48;;;;;;;38.67;19.40;;;;;;;11.32;81.30;98311.50;4485451;31;34131;-77
2022/11/18 08:04:16;;;;;;;41.22;19.25;;;;;;;10.87;83.75;98327.94;4486581;31;34082;-77
2022/11/18 08:06:44;;;;;;;37.60;18.10;;;;;;;11.09;83.06;98319.75;4493117;31;33574;-80
2022/11/18 08:09:11;;;;;;;40.75;18.80;;;;;;;11.43;81.63;98309.97;4488933;31;33389;-77
2022/11/18 08:11:39;;;;;;;38.83;16.87;;;;;;;11.54;81.08;98320.56;4492753;31;33802;-78
2022/11/18 08:14:07;;;;;;;35.75;15.93;;;;;;;11.36;81.08;98308.16;4489712;31;33654;-77
2022/11/18 08:16:34;;;;;;;38.58;16.10;;;;;;;11.54;80.50;98308.44;4493396;31;34590;-77
2022/11/18 08:19:02;;;;;;;33.95;15.52;;;;;;;11.09;82.76;98309.41;4492690;31;34148;-79
2022/11/18 08:21:29;;;;;;;33.90;15.07;;;;;;;11.59;79.98;98306.81;4488833;31;33530;-78
2022/11/18 08:23:57;;;;;;;34.40;14.55;;;;;;;11.37;80.79;98302.09;4486881;31;33966;-79
2022/11/18 08:26:26;;;;;;;33.05;14.95;;;;;;;10.90;83.13;98302.13;4482807;31;33728;-79
2022/11/18 08:28:53;;;;;;;36.53;16.52;;;;;;;11.25;81.84;98309.69;4488303;31;34949;-78
2022/11/18 08:31:24;;;;;;;32.58;13.95;;;;;;;11.32;81.83;98294.25;4484474;31;34551;-77
2022/11/18 08:34:04;;;;;;;34.70;14.98;;;;;;;11.18;81.56;98299.19;4484163;31;34205;-80
2022/11/18 08:36:34;;;;;;;35.17;14.27;;;;;;;11.30;81.32;98295.06;4486178;31;33770;-77
2022/11/18 08:39:04;;;;;;;38.20;15.35;;;;;;;10.95;82.79;98284.94;4487411;31;34237;-80
2022/11/18 08:41:37;;;;;;;32.42;13.68;;;;;;;11.22;82.26;98284.56;4492579;31;34641;-76
2022/11/18 08:44:05;;;;;;;34.42;14.35;;;;;;;11.37;81.26;98273.59;4493463;31;33993;-77
2022/11/18 08:46:33;;;;;;;33.28;16.12;;;;;;;11.00;82.96;98272.94;4486482;31;33914;-77
2022/11/18 08:49:00;;;;;;;34.72;15.50;;;;;;;11.08;82.89;98273.94;4484292;31;32948;-75
2022/11/18 08:51:28;;;;;;;31.95;14.65;;;;;;;10.97;83.58;98270.28;4484527;31;33622;-75
2022/11/18 08:53:56;;;;;;;30.60;14.98;;;;;;;10.97;83.60;98257.31;4485729;31;33808;-75
2022/11/18 08:56:24;;;;;;;32.03;16.10;;;;;;;11.26;82.35;98254.38;4486073;31;33586;-77
2022/11/18 08:58:52;;;;;;;31.80;14.85;;;;;;;11.18;82.45;98255.16;4485631;31;33156;-75
2022/11/18 09:01:19;;;;;;;32.78;14.82;;;;;;;11.18;82.60;98262.91;4487632;31;33656;-75
2022/11/18 09:03:47;;;;;;;29.23;13.62;;;;;;;11.07;83.15;98269.63;4480018;31;33803;-77
2022/11/18 09:06:17;;;;;;;31.75;13.55;;;;;;;11.27;82.41;98266.50;4484923;31;34673;-78
2022/11/18 09:08:45;;;;;;;29.65;13.85;;;;;;;11.41;81.76;98280.56;4487008;31;33601;-74
2022/11/18 09:11:18;;;;;;;34.83;14.38;;;;;;;11.40;81.70;98279.69;4483189;31;34282;-77
2022/11/18 09:13:46;;;;;;;30.62;14.23;;;;;;;11.34;81.89;98281.34;4490631;31;33883;-78
2022/11/18 09:16:34;;;;;;;29.30;13.27;;;;;;;11.50;81.04;98285.91;4497670;31;33957;-77
2022/11/18 09:19:02;;;;;;;31.30;13.68;;;;;;;11.31;82.22;98273.50;4488233;31;33630;-78
2022/11/18 09:21:49;;;;;;;31.25;12.85;;;;;;;11.29;81.85;98270.87;4496296;31;33944;-77
2022/11/18 09:24:17;;;;;;;29.85;13.45;;;;;;;11.19;82.43;98264.66;4487632;31;33902;-75
2022/11/18 09:26:45;;;;;;;30.42;13.52;;;;;;;10.97;83.28;98267.69;4489992;31;33680;-77
2022/11/18 09:29:12;;;;;;;34.35;14.32;;;;;;;10.54;85.56;98257.38;4491856;31;33212;-79
2022/11/18 09:31:39;;;;;;;30.50;14.05;;;;;;;10.72;85.08;98246.53;4483219;31;33974;-76
2022/11/18 09:34:09;;;;;;;30.02;14.82;;;;;;;10.89;84.49;98243.38;4484771;31;34622;-79
2022/11/18 09:36:36;;;;;;;28.87;12.37;;;;;;;11.35;81.75;98249.38;4483348;31;32091;-77
2022/11/18 09:39:04;;;;;;;28.62;12.48;;;;;;;10.88;84.18;98247.69;4486902;31;34020;-77
2022/11/18 09:42:00;;;;;;;29.73;12.98;;;;;;;10.64;85.66;98232.53;4486811;31;33672;-77
2022/11/18 09:44:50;;;;;;;28.65;12.52;;;;;;;10.68;85.69;98238.66;4482541;32;33533;-78
2022/11/18 09:47:30;;;;;;;30.73;14.23;;;;;;;11.23;83.07;98241.37;4482063;31;33867;-76
2022/11/18 09:50:09;;;;;;;29.87;13.55;;;;;;;11.41;82.13;98249.44;4485218;31;34153;-76
2022/11/18 09:53:18;;;;;;;31.37;13.75;;;;;;;11.36;82.28;98235.56;4482555;31;33846;-77
2022/11/18 09:55:47;;;;;;;30.20;14.20;;;;;;;11.03;84.16;98216.00;4485473;31;34359;-80
2022/11/18 09:58:18;;;;;;;33.05;14.10;;;;;;;11.19;83.04;98211.94;4491125;31;34168;-75
2022/11/18 10:00:46;;;;;;;30.23;14.18;;;;;;;10.84;84.75;98201.00;4483733;31;34387;-75
2022/11/18 10:03:21;;;;;;;31.25;14.45;;;;;;;11.04;84.12;98198.72;4496421;31;34019;-78
2022/11/18 10:06:08;;;;;;;33.05;15.52;;;;;;;10.96;84.37;98196.00;4485012;31;33696;-76
2022/11/18 10:08:39;;;;;;;32.83;14.15;;;;;;;10.55;86.61;98190.97;4486820;31;33589;-79
2022/11/18 10:11:09;;;;;;;33.80;14.87;;;;;;;10.69;85.90;98184.31;4479713;31;32554;-80
2022/11/18 10:13:58;;;;;;;29.67;14.90;;;;;;;10.70;86.23;98182.59;4488297;31;33613;-77
2022/11/18 10:16:45;;;;;;;31.65;14.90;;;;;;;10.77;85.51;98198.25;4480213;31;34795;-78
2022/11/18 10:19:31;;;;;;;30.37;13.43;;;;;;;10.70;85.18;98199.00;4482679;31;33394;-77
2022/11/18 10:22:23;;;;;;;29.15;13.65;;;;;;;10.69;85.30;98194.66;4482438;31;33818;-78
2022/11/18 10:24:53;;;;;;;30.75;13.32;;;;;;;11.06;83.80;98195.31;4495297;31;33216;-76
2022/11/18 10:27:22;;;;;;;29.60;13.40;;;;;;;10.58;84.94;98196.19;4481727;32;34725;-79
2022/11/18 10:29:55;;;;;;;26.95;12.75;;;;;;;10.38;86.16;98188.91;4484664;31;33666;-79
2022/11/18 10:32:23;;;;;;;26.27;12.50;;;;;;;10.72;85.12;98186.06;4480881;32;33624;-78
2022/11/18 10:34:56;;;;;;;26.12;12.75;;;;;;;10.78;84.64;98189.66;4488503;31;34505;-81
2022/11/18 10:37:27;;;;;;;24.02;11.70;;;;;;;10.99;83.72;98178.81;4483890;31;34795;-80
2022/11/18 10:40:26;;;;;;;22.60;11.73;;;;;;;10.90;83.55;98182.97;4481704;31;33592;-79
2022/11/18 10:42:54;;;;;;;23.05;11.55;;;;;;;11.12;82.69;98185.03;4485495;31;34272;-76
2022/11/18 10:45:22;;;;;;;26.23;11.48;;;;;;;10.76;84.07;98181.00;4487127;31;33827;-79
2022/11/18 10:47:57;;;;;;;25.62;11.90;;;;;;;10.56;85.02;98182.34;4485506;31;34570;-77
2022/11/18 10:50:27;;;;;;;24.75;11.95;;;;;;;11.19;82.06;98170.47;4493704;31;32366;-80
2022/11/18 10:52:54;;;;;;;24.63;11.85;;;;;;;11.11;81.89;98170.34;4485101;31;34504;-78
2022/11/18 10:55:23;;;;;;;25.10;12.02;;;;;;;10.91;83.90;98169.13;4489511;31;34421;-78
2022/11/18 10:58:06;;;;;;;25.08;11.00;;;;;;;11.31;81.54;98172.41;4490676;31;33930;-79
2022/11/18 11:00:42;;;;;;;25.33;11.93;;;;;;;11.10;81.91;98175.50;4470432;31;33842;-77
2022/11/18 11:03:21;;;;;;;24.87;11.77;;;;;;;11.06;82.47;98171.13;4495968;31;33382;-78
2022/11/18 11:06:11;;;;;;;26.77;12.15;;;;;;;11.24;81.61;98173.13;4486563;31;33250;-78
2022/11/18 11:08:53;;;;;;;24.50;12.00;;;;;;;11.46;80.38;98169.19;4487642;31;33718;-79
2022/11/18 11:11:29;;;;;;;23.52;11.75;;;;;;;11.71;79.28;98184.22;4488379;31;33467;-76
2022/11/18 11:14:20;;;;;;;29.75;12.63;;;;;;;11.20;81.31;98183.47;4496904;31;34125;-76
2022/11/18 11:17:09;;;;;;;24.45;11.75;;;;;;;11.29;81.00;98189.66;4486686;31;33417;-78
2022/11/18 11:20:05;;;;;;;26.73;11.60;;;;;;;11.44;80.48;98189.88;4480154;31;33465;-79
2022/11/18 11:22:32;;;;;;;23.27;11.55;;;;;;;11.45;80.22;98189.03;4478260;31;33848;-79
2022/11/18 11:25:10;;;;;;;24.20;11.40;;;;;;;11.21;80.82;98198.16;4475046;31;31387;-80
2022/11/18 11:27:38;;;;;;;;;;;;;;;11.22;81.49;98201.63;4486574;31;34905;-80
2022/11/18 11:30:26;;;;;;;34.30;16.12;;;;;;;11.67;79.54;98198.00;4482706;32;34934;-79
2022/11/18 11:33:19;;;;;;;27.98;13.27;;;;;;;12.02;77.78;98191.59;4497339;31;33575;-78
2022/11/18 11:36:01;;;;;;;22.30;12.32;;;;;;;11.87;78.03;98187.91;4482725;32;33307;-78
2022/11/18 11:39:08;;;;;;;29.08;14.25;;;;;;;12.10;77.33;98184.78;4483151;32;33713;-81
2022/11/18 11:41:58;;;;;;;27.27;13.80;;;;;;;11.24;80.91;98181.78;4489856;31;33748;-78
2022/11/18 11:44:39;;;;;;;24.37;11.40;;;;;;;11.50;80.06;98178.75;4479671;32;34019;-78
2022/11/18 11:47:48;;;;;;;27.55;12.18;;;;;;;11.68;79.02;98175.53;4488052;31;33646;-80
2022/11/18 11:50:21;;;;;;;23.02;10.68;;;;;;;12.02;78.10;98176.03;4480774;31;33343;-79
2022/11/18 11:53:23;;;;;;;23.08;10.55;;;;;;;12.09;76.48;98188.22;4485181;31;33855;-82
2022/11/18 11:56:13;;;;;;;26.62;13.00;;;;;;;11.64;78.99;98178.94;4483637;31;32644;-80
2022/11/18 11:58:54;;;;;;;21.35;9.98;;;;;;;11.76;78.69;98171.31;4484460;31;33531;-80
2022/11/18 12:01:30;;;;;;;21.60;10.35;;;;;;;11.72;79.05;98172.13;4489688;31;33432;-82